createdAt,value
2023-01-13T00:00:11.919Z,20.70
2023-01-13T00:02:43.912Z,20.70
2023-01-13T00:05:15.928Z,20.60
2023-01-13T00:07:48.214Z,20.60
2023-01-13T00:10:20.750Z,20.60
2023-01-13T00:12:53.761Z,20.50
2023-01-13T00:15:25.461Z,20.60
2023-01-13T00:18:00.111Z,20.60
2023-01-13T00:20:31.819Z,20.60
2023-01-13T00:23:03.962Z,20.60
2023-01-13T00:25:35.631Z,20.60
2023-01-13T00:28:08.608Z,20.60
2023-01-13T00:30:44.381Z,20.60
2023-01-13T00:33:16.427Z,20.60
2023-01-13T00:35:48.799Z,20.60
2023-01-13T00:38:20.965Z,20.60
2023-01-13T00:41:00.814Z,20.60
2023-01-13T00:43:34.446Z,20.60
2023-01-13T00:46:06.526Z,20.70
2023-01-13T00:48:39.573Z,20.70
2023-01-13T00:51:14.046Z,20.80
2023-01-13T00:53:47.975Z,20.70
2023-01-13T00:56:39.284Z,20.70
2023-01-13T00:58:59.315Z,20.90
2023-01-13T01:01:31.637Z,20.90
2023-01-13T01:04:05.022Z,20.80
2023-01-13T01:06:36.997Z,20.90
2023-01-13T01:09:09.004Z,20.90
2023-01-13T01:11:49.335Z,20.90
2023-01-13T01:14:21.085Z,20.90
2023-01-13T01:17:17.066Z,20.90
2023-01-13T01:19:51.070Z,20.90
2023-01-13T01:22:23.048Z,21.00
2023-01-13T01:25:00.729Z,21.00
2023-01-13T01:27:33.810Z,21.00
2023-01-13T01:30:11.935Z,21.00
2023-01-13T01:32:44.740Z,21.00
2023-01-13T01:35:17.237Z,21.10
2023-01-13T01:37:52.024Z,21.00
2023-01-13T01:40:39.581Z,21.10
2023-01-13T01:43:34.028Z,21.20
2023-01-13T01:46:08.235Z,21.20
2023-01-13T01:48:42.491Z,21.30
2023-01-13T01:51:17.688Z,21.30
2023-01-13T01:53:51.814Z,21.40
2023-01-13T01:56:24.774Z,21.40
2023-01-13T01:58:57.576Z,21.40
2023-01-13T02:01:29.745Z,21.60
2023-01-13T02:04:03.864Z,21.60
2023-01-13T02:06:35.851Z,21.70
2023-01-13T02:09:08.034Z,21.70
2023-01-13T02:11:58.069Z,21.80
2023-01-13T02:14:32.085Z,21.80
2023-01-13T02:17:22.786Z,21.90
2023-01-13T02:20:13.234Z,21.90
2023-01-13T02:23:04.272Z,22.00
2023-01-13T02:25:44.195Z,22.10
2023-01-13T02:28:21.359Z,22.10
2023-01-13T02:31:18.889Z,22.20
2023-01-13T02:34:02.007Z,22.20
2023-01-13T02:36:57.263Z,22.30
2023-01-13T02:39:55.179Z,22.30
2023-01-13T02:42:49.844Z,22.30
2023-01-13T02:45:25.044Z,22.40
2023-01-13T02:47:58.777Z,22.40
2023-01-13T02:50:32.824Z,22.50
2023-01-13T02:53:26.572Z,22.70
2023-01-13T02:55:59.921Z,22.70
2023-01-13T02:58:34.121Z,22.80
2023-01-13T03:01:05.580Z,22.80
2023-01-13T03:03:37.765Z,22.80
2023-01-13T03:06:16.969Z,22.80
2023-01-13T03:08:50.356Z,22.90
2023-01-13T03:11:22.875Z,22.80
2023-01-13T03:14:11.165Z,22.80
2023-01-13T03:16:47.481Z,22.80
2023-01-13T03:19:42.769Z,22.90
2023-01-13T03:22:23.567Z,22.90
2023-01-13T03:25:15.907Z,22.90
2023-01-13T03:27:49.359Z,23.00
2023-01-13T03:30:33.072Z,23.10
2023-01-13T03:33:09.511Z,23.10
2023-01-13T03:35:42.996Z,23.20
2023-01-13T03:38:22.529Z,23.30
2023-01-13T03:40:56.049Z,23.40
2023-01-13T03:43:47.073Z,23.50
2023-01-13T03:46:23.869Z,23.60
2023-01-13T03:48:55.383Z,23.70
2023-01-13T03:51:29.667Z,23.80
2023-01-13T03:54:03.094Z,24.00
2023-01-13T03:56:41.216Z,24.10
2023-01-13T03:59:15.419Z,24.20
2023-01-13T04:01:49.175Z,24.30
2023-01-13T04:04:23.133Z,24.30
2023-01-13T04:07:27.305Z,24.40
2023-01-13T04:10:02.900Z,24.50
2023-01-13T04:12:56.863Z,24.60
2023-01-13T04:15:30.534Z,24.80
2023-01-13T04:18:23.129Z,24.90
2023-01-13T04:20:58.883Z,25.30
2023-01-13T04:23:30.523Z,25.00
2023-01-13T04:26:02.178Z,25.10
2023-01-13T04:28:35.058Z,25.20
2023-01-13T04:31:11.141Z,25.30
2023-01-13T04:33:42.332Z,25.20
2023-01-13T04:36:15.012Z,25.10
2023-01-13T04:38:46.230Z,25.40
2023-01-13T04:41:17.257Z,25.50
2023-01-13T04:43:48.514Z,25.60
2023-01-13T04:46:19.599Z,25.60
2023-01-13T04:48:50.635Z,25.80
2023-01-13T04:51:21.980Z,25.90
2023-01-13T04:53:53.535Z,26.10
2023-01-13T04:56:26.018Z,26.00
2023-01-13T04:58:57.949Z,26.30
2023-01-13T05:01:29.796Z,26.00
2023-01-13T05:04:00.978Z,26.20
2023-01-13T05:06:32.224Z,26.30
2023-01-13T05:09:03.268Z,26.40
2023-01-13T05:11:56.113Z,26.40
2023-01-13T05:14:45.119Z,26.40
2023-01-13T05:17:18.518Z,26.60
2023-01-13T05:19:51.874Z,26.70
2023-01-13T05:22:40.581Z,26.70
2023-01-13T05:25:23.871Z,26.90
2023-01-13T05:28:02.606Z,27.10
2023-01-13T05:30:36.097Z,27.20
2023-01-13T05:33:07.301Z,27.30
2023-01-13T05:35:44.334Z,27.40
2023-01-13T05:38:17.411Z,27.50
2023-01-13T05:41:05.997Z,27.60
2023-01-13T05:43:37.060Z,27.60
2023-01-13T05:46:10.534Z,27.70
2023-01-13T05:48:46.011Z,27.70
2023-01-13T05:51:18.513Z,27.80
2023-01-13T05:53:50.221Z,27.80
2023-01-13T05:56:21.245Z,27.80
2023-01-13T05:58:52.386Z,27.80
2023-01-13T06:01:24.148Z,27.90
2023-01-13T06:03:55.650Z,27.90
2023-01-13T06:06:28.945Z,27.90
2023-01-13T06:09:00.571Z,28.00
2023-01-13T06:11:31.622Z,28.00
2023-01-13T06:14:03.982Z,28.00
2023-01-13T06:16:35.443Z,28.00
2023-01-13T06:19:08.494Z,28.00
2023-01-13T06:21:39.481Z,28.00
2023-01-13T06:24:11.733Z,28.00
2023-01-13T06:26:43.941Z,28.00
2023-01-13T06:29:24.029Z,28.00
2023-01-13T06:31:54.820Z,28.10
2023-01-13T06:34:26.338Z,28.10
2023-01-13T06:37:05.163Z,28.00
2023-01-13T06:39:38.650Z,28.00
2023-01-13T06:42:30.810Z,28.00
2023-01-13T06:45:03.573Z,28.00
2023-01-13T06:47:36.871Z,28.10
2023-01-13T06:50:09.536Z,28.20
2023-01-13T06:52:41.844Z,28.40
2023-01-13T06:55:13.074Z,28.50
2023-01-13T06:57:59.559Z,28.60
2023-01-13T07:00:38.209Z,28.70
2023-01-13T07:03:14.840Z,28.80
2023-01-13T07:05:48.040Z,28.90
2023-01-13T07:08:22.935Z,29.00
2023-01-13T07:10:54.165Z,29.00
2023-01-13T07:13:44.165Z,29.10
2023-01-13T07:16:15.353Z,29.10
2023-01-13T07:18:46.771Z,29.10
2023-01-13T07:21:23.183Z,29.10
2023-01-13T07:23:57.011Z,29.10
2023-01-13T07:26:28.109Z,29.10
2023-01-13T07:31:36.001Z,29.20
2023-01-13T07:34:07.390Z,29.20
2023-01-13T07:36:40.469Z,29.10
2023-01-13T07:39:12.801Z,29.10
2023-01-13T07:42:01.192Z,29.20
2023-01-13T07:44:38.156Z,29.20
2023-01-13T07:47:10.429Z,29.20
2023-01-13T07:49:42.676Z,29.30
2023-01-13T07:52:16.495Z,29.20
2023-01-13T07:54:47.505Z,29.20
2023-01-13T07:57:18.942Z,29.20
2023-01-13T07:59:49.968Z,29.10
2023-01-13T08:02:21.416Z,29.10
2023-01-13T08:04:52.806Z,29.10
2023-01-13T08:07:23.861Z,29.10
2023-01-13T08:09:55.274Z,29.10
2023-01-13T08:12:53.316Z,29.10
2023-01-13T08:15:16.682Z,29.10
2023-01-13T08:17:48.022Z,29.00
2023-01-13T08:20:23.487Z,29.00
2023-01-13T08:22:55.754Z,28.90
2023-01-13T08:25:27.415Z,28.90
2023-01-13T08:28:00.280Z,28.90
2023-01-13T08:30:32.181Z,29.00
2023-01-13T08:33:06.283Z,29.00
2023-01-13T08:35:41.509Z,29.00
2023-01-13T08:38:13.473Z,29.00
2023-01-13T08:40:44.633Z,29.10
2023-01-13T08:43:15.730Z,29.00
2023-01-13T08:46:06.266Z,29.00
2023-01-13T08:48:40.711Z,29.00
2023-01-13T08:51:14.278Z,29.10
2023-01-13T08:53:45.288Z,29.10
2023-01-13T08:56:18.271Z,29.10
2023-01-13T08:58:53.992Z,29.10
2023-01-13T09:01:26.438Z,29.10
2023-01-13T09:03:58.008Z,29.10
2023-01-13T09:06:30.058Z,29.00
2023-01-13T09:09:03.457Z,29.00
2023-01-13T09:11:54.307Z,29.00
2023-01-13T09:14:27.553Z,29.00
2023-01-13T09:17:03.856Z,29.00
2023-01-13T09:19:43.600Z,29.00
2023-01-13T09:22:18.282Z,29.00
2023-01-13T09:24:50.993Z,29.00
2023-01-13T09:27:22.449Z,29.00
2023-01-13T09:29:54.105Z,28.90
2023-01-13T09:32:25.146Z,28.90
2023-01-13T09:35:02.344Z,28.80
2023-01-13T09:37:38.296Z,28.80
2023-01-13T09:40:11.617Z,28.70
2023-01-13T09:43:12.530Z,28.70
2023-01-13T09:45:51.854Z,28.70
2023-01-13T09:48:41.795Z,28.70
2023-01-13T09:51:18.825Z,28.70
2023-01-13T09:53:55.774Z,28.70
2023-01-13T09:56:34.397Z,28.60
2023-01-13T09:59:06.431Z,28.60
2023-01-13T10:01:45.514Z,28.60
2023-01-13T10:04:32.628Z,28.50
2023-01-13T10:07:07.191Z,28.50
2023-01-13T10:09:49.599Z,28.50
2023-01-13T10:12:41.357Z,28.40
2023-01-13T10:15:21.315Z,28.30
2023-01-13T10:17:56.372Z,28.20
2023-01-13T10:20:52.522Z,28.20
2023-01-13T10:23:45.365Z,28.10
2023-01-13T10:26:35.820Z,28.00
2023-01-13T10:29:08.272Z,28.00
2023-01-13T10:31:44.586Z,27.90
2023-01-13T10:34:19.914Z,27.90
2023-01-13T10:37:06.044Z,27.80
2023-01-13T10:39:51.388Z,27.70
2023-01-13T10:42:43.100Z,27.70
2023-01-13T10:45:16.883Z,27.70
2023-01-13T10:47:53.568Z,27.60
2023-01-13T10:50:34.250Z,27.60
2023-01-13T10:53:25.243Z,27.60
2023-01-13T10:56:06.840Z,27.50
2023-01-13T10:58:38.202Z,27.50
2023-01-13T11:01:10.638Z,27.50
2023-01-13T11:03:45.373Z,27.40
2023-01-13T11:06:26.958Z,27.40
2023-01-13T11:08:59.621Z,27.30
2023-01-13T11:11:50.611Z,27.30
2023-01-13T11:14:43.661Z,27.20
2023-01-13T11:17:24.323Z,27.20
2023-01-13T11:20:05.162Z,27.10
2023-01-13T11:22:42.433Z,27.20
2023-01-13T11:25:25.174Z,27.10
2023-01-13T11:28:12.054Z,27.10
2023-01-13T11:31:08.387Z,27.10
2023-01-13T11:33:43.643Z,27.00
2023-01-13T11:36:22.613Z,27.00
2023-01-13T11:39:01.607Z,27.00
2023-01-13T11:41:36.291Z,27.00
2023-01-13T11:44:27.959Z,27.00
2023-01-13T11:47:02.422Z,26.90
2023-01-13T11:49:36.348Z,26.80
2023-01-13T11:52:44.013Z,26.80
2023-01-13T11:55:29.505Z,26.80
2023-01-13T11:58:20.022Z,26.80
2023-01-13T12:01:11.637Z,26.80
2023-01-13T12:04:00.411Z,26.80
2023-01-13T12:06:46.700Z,26.70
2023-01-13T12:09:47.577Z,26.70
2023-01-13T12:12:29.349Z,26.70
2023-01-13T12:15:03.985Z,26.70
2023-01-13T12:18:02.286Z,26.60
2023-01-13T12:20:38.571Z,26.60
2023-01-13T12:23:14.827Z,26.60
2023-01-13T12:25:50.967Z,26.60
2023-01-13T12:28:32.896Z,26.60
2023-01-13T12:31:05.691Z,26.50
2023-01-13T12:33:51.310Z,26.50
2023-01-13T12:36:50.857Z,26.50
2023-01-13T12:39:40.238Z,26.50
2023-01-13T12:43:02.604Z,26.50
2023-01-13T12:45:35.361Z,26.50
2023-01-13T12:48:31.158Z,26.50
2023-01-13T12:51:04.362Z,26.50
2023-01-13T12:53:37.859Z,26.40
2023-01-13T12:56:45.982Z,26.40
2023-01-13T12:59:25.179Z,26.40
2023-01-13T13:02:03.463Z,26.40
2023-01-13T13:05:01.947Z,26.40
2023-01-13T13:07:40.433Z,26.40
2023-01-13T13:10:21.166Z,26.30
2023-01-13T13:13:15.492Z,26.30
2023-01-13T13:15:48.518Z,26.30
2023-01-13T13:18:28.620Z,26.30
2023-01-13T13:21:05.512Z,26.30
2023-01-13T13:23:50.888Z,26.30
2023-01-13T13:26:36.287Z,26.30
2023-01-13T13:29:18.780Z,26.30
2023-01-13T13:32:07.244Z,26.30
2023-01-13T13:34:56.186Z,26.20
2023-01-13T13:37:34.273Z,26.20
2023-01-13T13:40:28.557Z,26.20
2023-01-13T13:43:21.080Z,26.20
2023-01-13T13:46:12.850Z,26.20
2023-01-13T13:49:00.362Z,26.20
2023-01-13T13:51:39.263Z,26.20
2023-01-13T13:54:12.502Z,26.10
2023-01-13T13:56:46.075Z,26.10
2023-01-13T13:59:20.422Z,26.10
2023-01-13T14:02:00.477Z,26.10
2023-01-13T14:04:40.086Z,26.00
2023-01-13T14:07:24.891Z,26.00
2023-01-13T14:10:00.814Z,26.00
2023-01-13T14:12:31.953Z,26.00
2023-01-13T14:15:04.428Z,26.00
2023-01-13T14:17:36.399Z,26.00
2023-01-13T14:20:10.775Z,26.00
2023-01-13T14:22:42.270Z,26.00
2023-01-13T14:25:24.735Z,26.00
2023-01-13T14:27:56.589Z,26.00
2023-01-13T14:30:29.811Z,26.00
2023-01-13T14:33:00.833Z,26.00
2023-01-13T14:35:33.334Z,26.00
2023-01-13T14:38:07.654Z,26.00
2023-01-13T14:40:42.322Z,26.00
2023-01-13T14:43:18.840Z,26.00
2023-01-13T14:45:59.414Z,26.00
2023-01-13T14:48:43.025Z,26.00
2023-01-13T14:51:24.291Z,26.00
2023-01-13T14:53:55.892Z,26.00
2023-01-13T14:56:46.042Z,26.00
2023-01-13T14:59:38.827Z,26.00
2023-01-13T15:02:32.691Z,25.90
2023-01-13T15:05:21.111Z,25.90
2023-01-13T15:08:10.791Z,25.90
2023-01-13T15:11:03.268Z,25.90
2023-01-13T15:13:39.708Z,25.90
2023-01-13T15:16:17.318Z,25.90
2023-01-13T15:18:48.696Z,25.80
2023-01-13T15:21:20.313Z,25.80
2023-01-13T15:23:51.485Z,25.80
2023-01-13T15:26:30.915Z,25.80
2023-01-13T15:29:02.286Z,25.70
2023-01-13T15:31:33.583Z,25.70
2023-01-13T15:34:04.796Z,25.70
2023-01-13T15:36:37.948Z,25.60
2023-01-13T15:39:11.530Z,25.60
2023-01-13T15:41:59.769Z,25.70
2023-01-13T15:44:48.172Z,25.70
2023-01-13T15:47:19.292Z,25.70
2023-01-13T15:49:54.232Z,25.80
2023-01-13T15:52:27.377Z,25.80
2023-01-13T15:54:58.504Z,25.80
2023-01-13T15:57:31.253Z,25.80
2023-01-13T16:00:05.127Z,25.80
2023-01-13T16:02:36.214Z,25.80
2023-01-13T16:05:10.342Z,25.80
2023-01-13T16:07:41.538Z,25.70
2023-01-13T16:10:15.109Z,25.60
2023-01-13T16:12:47.136Z,25.60
2023-01-13T16:15:19.464Z,25.50
2023-01-13T16:17:53.152Z,25.50
2023-01-13T16:20:28.657Z,25.40
2023-01-13T16:22:59.692Z,25.40
2023-01-13T16:25:31.147Z,25.30
2023-01-13T16:28:02.211Z,25.30
2023-01-13T16:30:35.630Z,25.20
2023-01-13T16:33:06.733Z,25.20
2023-01-13T16:35:37.792Z,25.10
2023-01-13T16:38:11.391Z,25.10
2023-01-13T16:40:42.418Z,25.10
2023-01-13T16:43:15.663Z,25.10
2023-01-13T16:45:46.788Z,25.10
2023-01-13T16:48:23.504Z,25.10
2023-01-13T16:50:53.361Z,25.10
2023-01-13T16:53:24.645Z,25.10
2023-01-13T16:55:58.427Z,25.00
2023-01-13T16:58:29.491Z,25.00
2023-01-13T17:01:00.607Z,24.90
2023-01-13T17:03:33.087Z,24.90
2023-01-13T17:06:05.290Z,24.80
2023-01-13T17:08:39.070Z,24.80
2023-01-13T17:11:10.143Z,24.80
2023-01-13T17:13:42.562Z,24.80
2023-01-13T17:16:19.240Z,24.80
2023-01-13T17:18:50.311Z,24.70
2023-01-13T17:21:21.499Z,24.70
2023-01-13T17:23:52.792Z,24.70
2023-01-13T17:26:38.306Z,24.70
2023-01-13T17:29:11.618Z,24.60
2023-01-13T17:31:42.789Z,24.50
2023-01-13T17:34:18.116Z,24.60
2023-01-13T17:36:49.430Z,24.60
2023-01-13T17:39:22.398Z,24.60
2023-01-13T17:41:53.540Z,24.60
2023-01-13T17:44:25.759Z,24.60
2023-01-13T17:46:56.832Z,24.60
2023-01-13T17:49:28.385Z,24.60
2023-01-13T17:51:59.497Z,24.60
2023-01-13T17:54:30.645Z,24.60
2023-01-13T17:57:01.672Z,24.60
2023-01-13T17:59:32.720Z,24.60
2023-01-13T18:02:03.862Z,24.60
2023-01-13T18:04:35.075Z,24.60
2023-01-13T18:07:07.368Z,24.60
2023-01-13T18:09:38.520Z,24.60
2023-01-13T18:12:09.718Z,24.60
2023-01-13T18:14:40.762Z,24.60
2023-01-13T18:17:16.921Z,24.60
2023-01-13T18:20:05.054Z,24.50
2023-01-13T18:22:53.360Z,24.50
2023-01-13T18:28:15.912Z,24.30
2023-01-13T18:30:46.989Z,24.40
2023-01-13T18:33:18.018Z,24.40
2023-01-13T18:35:49.054Z,24.30
2023-01-13T18:38:27.577Z,24.30
2023-01-13T18:40:58.689Z,24.30
2023-01-13T18:43:29.745Z,24.30
2023-01-13T18:46:00.845Z,24.20
2023-01-13T18:48:32.520Z,24.20
2023-01-13T18:51:04.108Z,24.20
2023-01-13T18:53:35.143Z,24.20
2023-01-13T18:56:09.239Z,24.20
2023-01-13T18:58:54.388Z,24.10
2023-01-13T19:01:30.760Z,24.10
2023-01-13T19:04:03.958Z,24.10
2023-01-13T19:06:36.274Z,24.10
2023-01-13T19:09:08.622Z,24.00
2023-01-13T19:11:39.766Z,24.00
2023-01-13T19:14:11.016Z,24.00
2023-01-13T19:16:42.043Z,24.00
2023-01-13T19:19:13.086Z,23.90
2023-01-13T19:21:44.127Z,23.90
2023-01-13T19:24:15.148Z,23.90
2023-01-13T19:26:47.005Z,23.80
2023-01-13T19:29:24.261Z,23.80
2023-01-13T19:32:00.450Z,23.80
2023-01-13T19:34:33.881Z,23.80
2023-01-13T19:37:08.032Z,23.70
2023-01-13T19:39:39.065Z,23.70
2023-01-13T19:42:27.819Z,23.70
2023-01-13T19:45:16.285Z,23.70
2023-01-13T19:47:56.603Z,23.70
2023-01-13T19:50:27.756Z,23.70
2023-01-13T19:53:00.026Z,23.70
2023-01-13T19:55:34.647Z,23.70
2023-01-13T19:58:06.208Z,23.70
2023-01-13T20:00:37.290Z,23.70
2023-01-13T20:03:09.677Z,23.70
2023-01-13T20:05:40.756Z,23.70
2023-01-13T20:08:12.300Z,23.70
2023-01-13T20:10:43.950Z,23.70
2023-01-13T20:13:15.120Z,23.70
2023-01-13T20:15:46.274Z,23.70
2023-01-13T20:18:39.120Z,23.60
2023-01-13T20:21:11.330Z,23.60
2023-01-13T20:23:42.346Z,23.60
2023-01-13T20:26:32.309Z,23.60
2023-01-13T20:29:03.350Z,23.60
2023-01-13T20:31:38.720Z,23.50
2023-01-13T20:34:09.741Z,23.50
2023-01-13T20:36:44.619Z,23.50
2023-01-13T20:39:18.013Z,23.50
2023-01-13T20:42:06.600Z,23.50
2023-01-13T20:44:38.077Z,23.50
2023-01-13T20:47:09.421Z,23.50
2023-01-13T20:49:40.464Z,23.50
2023-01-13T20:52:30.419Z,23.40
2023-01-13T20:55:01.902Z,23.40
2023-01-13T20:57:32.949Z,23.30
2023-01-13T21:00:04.185Z,23.30
2023-01-13T21:02:35.227Z,23.20
2023-01-13T21:05:06.309Z,23.10
2023-01-13T21:07:37.319Z,23.10
2023-01-13T21:10:09.151Z,23.10
2023-01-13T21:12:57.790Z,23.10
2023-01-13T21:15:28.908Z,23.00
2023-01-13T21:18:17.311Z,23.00
2023-01-13T21:20:48.345Z,22.90
2023-01-13T21:25:50.142Z,22.80
2023-01-13T21:28:21.159Z,22.80
2023-01-13T21:30:53.461Z,22.70
2023-01-13T21:33:27.347Z,22.70
2023-01-13T21:36:03.566Z,22.70
2023-01-13T21:38:36.901Z,22.70
2023-01-13T21:41:13.717Z,22.70
2023-01-13T21:44:02.187Z,22.70
2023-01-13T21:46:50.492Z,22.70
2023-01-13T21:49:23.371Z,22.70
2023-01-13T21:52:13.357Z,22.70
2023-01-13T21:55:02.305Z,22.60
2023-01-13T21:57:33.575Z,22.60
2023-01-13T22:00:04.609Z,22.60
2023-01-13T22:02:37.695Z,22.50
2023-01-13T22:05:14.029Z,22.50
2023-01-13T22:07:50.335Z,22.50
2023-01-13T22:10:41.561Z,22.40
2023-01-13T22:13:31.751Z,22.40
2023-01-13T22:16:10.465Z,22.40
2023-01-13T22:18:42.817Z,22.30
2023-01-13T22:21:16.539Z,22.30
2023-01-13T22:23:50.429Z,22.30
2023-01-13T22:26:21.464Z,22.40
2023-01-13T22:28:54.519Z,22.40
2023-01-13T22:31:26.049Z,22.40
2023-01-13T22:34:02.919Z,22.40
2023-01-13T22:36:36.523Z,22.40
2023-01-13T22:39:14.740Z,22.50
2023-01-13T22:41:56.335Z,22.50
2023-01-13T22:44:27.419Z,22.50
2023-01-13T22:46:58.462Z,22.50
2023-01-13T22:49:30.779Z,22.50
2023-01-13T22:52:01.802Z,22.50
2023-01-13T22:54:32.859Z,22.60
2023-01-13T22:57:03.873Z,22.60
2023-01-13T22:59:35.420Z,22.60
2023-01-13T23:02:07.770Z,22.60
2023-01-13T23:04:41.253Z,22.60
2023-01-13T23:07:12.387Z,22.60
2023-01-13T23:09:43.431Z,22.60
2023-01-13T23:12:14.468Z,22.50
2023-01-13T23:14:45.515Z,22.50
2023-01-13T23:17:21.050Z,22.60
2023-01-13T23:19:52.090Z,22.60
2023-01-13T23:22:23.179Z,22.60
2023-01-13T23:24:54.251Z,22.60
2023-01-13T23:27:25.289Z,22.60
2023-01-13T23:29:56.316Z,22.60
2023-01-13T23:32:27.456Z,22.60
2023-01-13T23:34:58.505Z,22.50
2023-01-13T23:37:29.667Z,22.50
2023-01-13T23:40:03.653Z,22.50
2023-01-13T23:42:34.690Z,22.40
2023-01-13T23:45:06.474Z,22.40
2023-01-13T23:47:37.506Z,22.40
2023-01-13T23:50:09.456Z,22.30
2023-01-13T23:52:40.521Z,22.30
2023-01-13T23:55:12.267Z,22.30
2023-01-13T23:57:46.479Z,22.20
